Time;durP1;ratioP1;P1;durP2;ratioP2;P2;SDS_P1;SDS_P2;PMS_P1;PMS_P2;Temp;Humidity;BMP_temperature;BMP_pressure;BME280_temperature;BME280_humidity;BME280_pressure;Samples;Min_cycle;Max_cycle;Signal;HPM_P1;HPM_P2
2021/04/16 00:01:27;;;;;;;9.57;4.63;;;;;;;-0.99;75.54;99649.63;5067512;28;20040;-69
2021/04/16 00:03:52;;;;;;;9.32;4.05;;;;;;;-0.94;75.40;99650.16;5068127;28;20048;-69
2021/04/16 00:06:18;;;;;;;7.40;3.63;;;;;;;-0.94;75.15;99647.50;5062166;28;20478;-69
2021/04/16 00:08:44;;;;;;;9.90;3.85;;;;;;;-0.98;75.17;99644.19;5063427;28;20040;-69
2021/04/16 00:11:16;;;;;;;12.25;3.83;;;;;;;-1.11;74.99;99641.56;5049245;28;20029;-69
2021/04/16 00:13:41;;;;;;;9.90;3.60;;;;;;;-1.08;75.68;99645.81;5061617;28;20483;-69
2021/04/16 00:16:08;;;;;;;10.18;3.33;;;;;;;-1.17;76.81;99647.31;5066636;28;20028;-69
2021/04/16 00:18:33;;;;;;;6.75;3.40;;;;;;;-1.28;76.13;99638.38;5066203;28;20033;-69
2021/04/16 00:20:59;;;;;;;8.70;3.45;;;;;;;-1.22;76.76;99644.13;5066413;28;20032;-69
2021/04/16 00:23:25;;;;;;;5.75;3.20;;;;;;;-1.11;75.43;99636.25;5061505;28;20597;-69
2021/04/16 00:25:51;;;;;;;6.70;3.25;;;;;;;-1.09;75.92;99637.97;5058939;28;20063;-69
2021/04/16 00:28:17;;;;;;;8.18;4.20;;;;;;;-1.36;76.47;99612.41;5071324;28;20032;-69
2021/04/16 00:31:07;;;;;;;7.47;4.03;;;;;;;-1.07;75.87;99631.59;5053113;28;20021;-69
2021/04/16 00:33:33;;;;;;;9.50;4.68;;;;;;;-1.14;76.02;99630.31;5054516;28;20044;-69
2021/04/16 00:35:58;;;;;;;8.02;4.32;;;;;;;-1.27;76.41;99619.72;5066683;28;20063;-69
2021/04/16 00:38:24;;;;;;;7.78;3.97;;;;;;;-1.40;76.60;99608.25;5066566;28;20094;-69
2021/04/16 00:41:01;;;;;;;9.70;4.03;;;;;;;-1.26;76.44;99623.19;5062379;28;20032;-69
2021/04/16 00:43:29;;;;;;;9.45;4.00;;;;;;;-1.53;77.00;99618.88;5065335;28;20089;-69
2021/04/16 00:46:19;;;;;;;9.98;4.05;;;;;;;-1.73;77.64;99625.53;5067935;28;20419;-69
2021/04/16 00:48:53;;;;;;;10.52;4.25;;;;;;;-1.85;78.92;99623.75;5045049;28;20394;-69
2021/04/16 00:51:41;;;;;;;8.05;3.80;;;;;;;-1.77;78.66;99621.41;5070505;28;20028;-69
2021/04/16 00:54:18;;;;;;;5.40;3.30;;;;;;;-1.80;78.49;99616.31;5071473;28;20040;-68
2021/04/16 00:56:43;;;;;;;9.70;3.97;;;;;;;-1.75;78.36;99619.50;5068500;28;20278;-69
2021/04/16 00:59:10;;;;;;;9.48;3.45;;;;;;;-1.82;77.88;99603.16;5067056;28;20037;-69
2021/04/16 01:01:35;;;;;;;8.73;3.83;;;;;;;-1.77;77.74;99605.50;5068632;28;20036;-69
2021/04/16 01:04:01;;;;;;;7.18;3.58;;;;;;;-1.88;78.24;99603.59;5055540;28;20036;-69
2021/04/16 01:06:26;;;;;;;8.82;4.03;;;;;;;-1.85;78.78;99613.13;5067147;28;20720;-69
2021/04/16 01:08:53;;;;;;;7.53;3.83;;;;;;;-1.87;79.04;99601.78;5058063;28;20546;-69
2021/04/16 01:11:19;;;;;;;8.52;3.75;;;;;;;-1.89;78.62;99603.69;5070172;28;20032;-69
2021/04/16 01:13:46;;;;;;;7.20;3.60;;;;;;;-1.96;79.09;99605.06;5071348;28;20123;-69
2021/04/16 01:16:15;;;;;;;8.77;4.10;;;;;;;-1.87;79.25;99615.03;5066502;28;20054;-68
2021/04/16 01:18:45;;;;;;;5.05;2.78;;;;;;;-1.92;78.47;99607.38;5051207;28;20461;-68
2021/04/16 01:21:14;;;;;;;5.70;3.38;;;;;;;-2.00;78.36;99609.72;5062915;28;20116;-68
2021/04/16 01:23:55;;;;;;;;;;;;;;;-2.00;78.28;99615.88;5064588;28;20032;-68
2021/04/16 01:26:32;;;;;;;5.80;3.15;;;;;;;-2.02;78.41;99607.19;5053526;28;19917;-68
2021/04/16 01:28:58;;;;;;;4.75;2.58;;;;;;;-1.96;78.72;99605.06;5062859;28;20032;-69
2021/04/16 01:31:27;;;;;;;5.63;2.88;;;;;;;-1.86;78.79;99595.50;5070239;28;20829;-69
2021/04/16 01:33:53;;;;;;;6.60;3.15;;;;;;;-1.87;78.56;99607.94;5070965;28;20115;-69
2021/04/16 01:36:23;;;;;;;7.95;3.55;;;;;;;-1.70;78.32;99600.59;5060301;28;20068;-69
2021/04/16 01:38:49;;;;;;;9.13;3.55;;;;;;;-1.83;78.00;99596.16;5068369;28;20028;-69
2021/04/16 01:41:17;;;;;;;7.60;3.72;;;;;;;-1.66;78.14;99605.59;5079612;28;20389;-69
2021/04/16 01:43:45;;;;;;;5.57;3.47;;;;;;;-1.85;77.94;99602.53;5059368;28;20033;-70
2021/04/16 01:46:15;;;;;;;6.35;3.72;;;;;;;-1.84;78.55;99601.56;5068268;28;20036;-69
2021/04/16 01:48:48;;;;;;;6.80;2.97;;;;;;;-1.85;77.81;99597.22;5089335;28;20055;-69
2021/04/16 01:51:32;;;;;;;5.50;2.92;;;;;;;-1.99;78.31;99601.66;5078082;28;20143;-69
2021/04/16 01:54:03;;;;;;;6.22;3.38;;;;;;;-2.01;78.74;99606.22;5093915;28;20033;-69
2021/04/16 01:56:29;;;;;;;5.30;3.00;;;;;;;-2.13;78.83;99588.47;5074696;28;20032;-68
2021/04/16 01:58:54;;;;;;;6.30;3.25;;;;;;;-2.00;78.96;99593.81;5074251;28;20013;-68
2021/04/16 02:01:19;;;;;;;4.95;3.05;;;;;;;-2.18;78.77;99580.00;5089702;28;20024;-69
2021/04/16 02:03:44;;;;;;;5.53;2.90;;;;;;;-2.17;79.57;99576.41;5071222;28;20120;-69
2021/04/16 02:06:10;;;;;;;5.97;3.10;;;;;;;-2.19;79.23;99583.59;5071737;28;20084;-68
2021/04/16 02:08:35;;;;;;;9.50;3.38;;;;;;;-2.23;79.34;99576.78;5070388;28;20032;-68
2021/04/16 02:11:00;;;;;;;5.70;3.03;;;;;;;-2.19;79.23;99578.31;5053342;28;20120;-69
2021/04/16 02:13:26;;;;;;;5.85;3.42;;;;;;;-2.22;79.33;99567.91;5059440;28;20032;-69
2021/04/16 02:15:51;;;;;;;6.15;3.28;;;;;;;-2.18;79.37;99579.16;5055533;28;20095;-69
2021/04/16 02:18:16;;;;;;;4.75;2.53;;;;;;;-2.26;80.11;99583.16;5070031;28;20051;-69
2021/04/16 02:20:42;;;;;;;6.40;2.42;;;;;;;-2.28;79.62;99581.56;5067907;28;20086;-69
2021/04/16 02:23:07;;;;;;;7.18;2.90;;;;;;;-2.25;79.83;99581.38;5058205;28;20052;-69
2021/04/16 02:25:32;;;;;;;4.05;2.45;;;;;;;-1.97;79.24;99580.34;5053107;28;20040;-69
2021/04/16 02:27:58;;;;;;;4.45;2.70;;;;;;;-2.16;79.43;99566.66;5050681;28;20114;-70
2021/04/16 02:30:30;;;;;;;6.95;2.70;;;;;;;-2.03;78.98;99581.59;5092178;28;20024;-70
2021/04/16 02:32:55;;;;;;;6.07;3.13;;;;;;;-2.22;79.22;99566.09;5078531;28;20032;-69
2021/04/16 02:35:21;;;;;;;6.38;2.97;;;;;;;-2.17;79.21;99587.00;5091398;28;20036;-69
2021/04/16 02:37:46;;;;;;;7.07;3.80;;;;;;;-2.13;79.72;99587.63;5090449;28;20039;-68
2021/04/16 02:40:16;;;;;;;8.23;3.55;;;;;;;-2.29;79.46;99566.63;5091016;28;20030;-69
2021/04/16 02:42:41;;;;;;;7.97;3.38;;;;;;;-2.27;79.45;99581.47;5086311;28;20084;-69
2021/04/16 02:45:10;;;;;;;8.68;3.40;;;;;;;-2.24;79.63;99577.75;5092083;28;20122;-69
2021/04/16 02:47:35;;;;;;;8.57;4.35;;;;;;;-2.23;80.05;99575.03;5073399;28;20017;-69
2021/04/16 02:50:00;;;;;;;8.57;4.15;;;;;;;-2.23;79.30;99576.78;5063491;28;20050;-69
2021/04/16 02:52:26;;;;;;;8.07;4.20;;;;;;;-2.40;79.93;99564.69;5068922;28;20036;-68
2021/04/16 02:54:51;;;;;;;7.38;4.20;;;;;;;-2.33;79.72;99578.38;5069680;28;20036;-68
2021/04/16 02:57:16;;;;;;;8.43;4.07;;;;;;;-2.41;79.91;99578.91;5067458;28;20028;-68
2021/04/16 02:59:41;;;;;;;17.25;4.07;;;;;;;-2.49;80.12;99582.06;5054861;28;20032;-69
2021/04/16 03:02:07;;;;;;;7.63;4.10;;;;;;;-2.51;80.88;99578.66;5050824;28;20036;-69
2021/04/16 03:04:32;;;;;;;7.72;4.43;;;;;;;-2.52;81.00;99568.16;5063807;28;20076;-69
2021/04/16 03:06:57;;;;;;;8.25;4.38;;;;;;;-2.53;80.32;99577.91;5069345;28;20398;-69
2021/04/16 03:09:23;;;;;;;9.18;4.45;;;;;;;-2.55;80.68;99576.31;5068382;28;20024;-68
2021/04/16 03:11:48;;;;;;;7.20;3.70;;;;;;;-2.69;80.51;99571.91;5065290;28;20040;-68
2021/04/16 03:14:14;;;;;;;8.18;4.10;;;;;;;-2.67;81.71;99572.69;5058438;28;20788;-68
2021/04/16 03:16:39;;;;;;;6.78;3.60;;;;;;;-2.80;80.98;99558.50;5048174;28;20035;-68
2021/04/16 03:19:06;;;;;;;9.30;4.45;;;;;;;-2.75;81.46;99564.34;5064069;28;20601;-69
2021/04/16 03:21:32;;;;;;;10.63;3.80;;;;;;;-2.85;81.43;99569.44;5065521;28;20550;-69
2021/04/16 03:23:57;;;;;;;7.60;3.85;;;;;;;-2.90;81.25;99566.22;5063139;28;20029;-69
2021/04/16 03:26:24;;;;;;;6.97;3.53;;;;;;;-2.99;81.68;99550.91;5066549;28;20052;-69
2021/04/16 03:28:57;;;;;;;7.45;4.10;;;;;;;-2.79;81.81;99573.47;5067696;28;20108;-69
2021/04/16 03:31:25;;;;;;;9.38;3.75;;;;;;;-2.92;82.33;99549.59;5064079;28;20548;-69
2021/04/16 03:33:50;;;;;;;5.97;3.65;;;;;;;-2.79;81.79;99563.72;5053606;28;20032;-69
2021/04/16 03:36:16;;;;;;;6.13;3.10;;;;;;;-2.79;82.06;99549.63;5063835;28;20024;-69
2021/04/16 03:38:41;;;;;;;6.78;3.03;;;;;;;-2.62;81.13;99567.06;5068406;28;20051;-69
2021/04/16 03:41:07;;;;;;;5.38;2.95;;;;;;;-2.52;81.70;99561.03;5065543;28;20036;-68
2021/04/16 03:43:32;;;;;;;8.50;3.70;;;;;;;-2.58;81.10;99550.03;5050382;28;20029;-68
2021/04/16 03:45:57;;;;;;;10.10;3.40;;;;;;;-2.57;80.21;99565.78;5066039;28;20032;-68
2021/04/16 03:48:23;;;;;;;6.30;3.38;;;;;;;-2.61;80.60;99560.81;5068851;28;20056;-68
2021/04/16 03:50:48;;;;;;;6.18;3.05;;;;;;;-2.70;81.71;99554.31;5068286;28;20030;-69
2021/04/16 03:53:13;;;;;;;7.05;3.55;;;;;;;-2.76;81.63;99554.72;5069085;28;20048;-69
2021/04/16 03:55:39;;;;;;;7.57;3.88;;;;;;;-2.73;81.98;99557.16;5069494;28;20082;-69
2021/04/16 03:58:06;;;;;;;6.70;3.38;;;;;;;-2.79;81.44;99550.47;5070525;28;20021;-69
2021/04/16 04:00:34;;;;;;;9.48;4.38;;;;;;;-2.64;81.38;99564.53;5065528;28;20035;-69
2021/04/16 04:03:00;;;;;;;8.40;4.20;;;;;;;-2.51;81.31;99557.47;5069879;28;20078;-69
2021/04/16 04:05:26;;;;;;;14.00;4.57;;;;;;;-2.40;80.74;99563.84;5060035;28;20040;-69
2021/04/16 04:07:53;;;;;;;6.40;3.25;;;;;;;-2.33;80.58;99557.16;5059731;28;20029;-69
2021/04/16 04:10:20;;;;;;;8.88;3.85;;;;;;;-2.51;80.67;99540.72;5072942;28;20032;-69
2021/04/16 04:12:46;;;;;;;7.72;3.70;;;;;;;-2.32;80.03;99562.38;5059040;28;20414;-72
2021/04/16 04:15:13;;;;;;;7.82;3.78;;;;;;;-2.30;80.19;99554.34;5053795;28;20025;-69
2021/04/16 04:17:38;;;;;;;8.43;3.92;;;;;;;-2.47;80.09;99548.34;5063927;28;20050;-69
2021/04/16 04:20:06;;;;;;;8.18;3.60;;;;;;;-2.54;79.57;99562.97;5073815;28;20028;-70
2021/04/16 04:22:32;;;;;;;9.50;3.55;;;;;;;-2.58;80.25;99563.25;5071936;28;20565;-69
2021/04/16 04:24:57;;;;;;;7.35;3.38;;;;;;;-2.63;80.55;99558.25;5072973;28;20104;-70
2021/04/16 04:27:23;;;;;;;7.72;4.05;;;;;;;-2.35;80.68;99565.22;5069875;28;20028;-69
2021/04/16 04:29:48;;;;;;;13.88;3.92;;;;;;;-2.49;80.39;99550.25;5072315;28;20051;-69
2021/04/16 04:32:14;;;;;;;6.40;3.38;;;;;;;-2.40;80.46;99558.56;5068030;28;20160;-69
2021/04/16 04:34:40;;;;;;;8.95;3.88;;;;;;;-2.45;80.70;99562.34;5071453;28;20029;-69
2021/04/16 04:37:07;;;;;;;6.72;3.13;;;;;;;-2.46;79.95;99568.59;5068206;28;20031;-70
2021/04/16 04:39:35;;;;;;;16.75;4.10;;;;;;;-2.35;79.91;99572.34;5070130;28;20095;-71
2021/04/16 04:42:02;;;;;;;7.03;3.33;;;;;;;-2.38;79.20;99551.31;5068957;28;20073;-70
2021/04/16 04:44:27;;;;;;;11.60;3.67;;;;;;;-2.35;78.94;99546.69;5071905;28;20107;-70
2021/04/16 04:46:52;;;;;;;11.45;4.30;;;;;;;-2.27;79.80;99559.41;5070366;28;20128;-71
2021/04/16 04:49:20;;;;;;;10.52;3.53;;;;;;;-2.16;79.35;99572.78;5083717;28;20385;-70
2021/04/16 04:51:46;;;;;;;14.70;3.88;;;;;;;-2.03;79.28;99575.47;5073312;28;20024;-71
2021/04/16 04:54:11;;;;;;;10.13;4.90;;;;;;;-2.01;78.99;99558.50;5070365;28;20036;-70
2021/04/16 04:56:37;;;;;;;9.18;4.93;;;;;;;-1.92;79.22;99559.66;5068474;28;20063;-71
2021/04/16 04:59:03;;;;;;;8.23;4.70;;;;;;;-1.81;78.48;99565.09;5071539;28;20028;-70
2021/04/16 05:01:28;;;;;;;12.27;5.05;;;;;;;-1.57;77.54;99570.50;5063319;28;20029;-70
2021/04/16 05:03:54;;;;;;;10.93;6.65;;;;;;;-1.45;77.20;99573.22;5058185;28;20021;-71
2021/04/16 05:06:19;;;;;;;17.25;8.25;;;;;;;-1.44;76.61;99578.44;5069695;28;20071;-72
2021/04/16 05:08:44;;;;;;;16.67;8.32;;;;;;;-1.43;76.37;99572.16;5067854;28;20024;-73
2021/04/16 05:11:11;;;;;;;17.42;8.40;;;;;;;-1.39;75.62;99568.34;5062399;28;20548;-72
2021/04/16 05:13:36;;;;;;;12.88;6.28;;;;;;;-1.45;75.49;99566.09;5073209;28;20050;-74
2021/04/16 05:16:01;;;;;;;10.88;6.05;;;;;;;-1.00;74.51;99584.16;5067739;28;20405;-73
2021/04/16 05:18:27;;;;;;;13.98;7.47;;;;;;;-1.14;74.32;99562.13;5060630;28;20024;-70
2021/04/16 05:20:52;;;;;;;11.23;6.13;;;;;;;-1.02;74.76;99554.22;5067679;28;20029;-69
2021/04/16 05:23:18;;;;;;;12.55;6.38;;;;;;;-0.68;74.01;99569.41;5086072;28;20078;-73
2021/04/16 05:25:43;;;;;;;13.55;6.88;;;;;;;-0.55;73.06;99576.44;5072338;28;20024;-75
2021/04/16 05:28:08;;;;;;;9.23;5.50;;;;;;;-0.42;73.18;99574.56;5071865;28;20078;-73
2021/04/16 05:30:34;;;;;;;12.07;5.85;;;;;;;-0.26;73.27;99564.50;5071313;28;20028;-73
2021/04/16 05:33:00;;;;;;;17.95;7.13;;;;;;;-0.08;72.79;99580.00;5054994;28;20049;-73
2021/04/16 05:35:25;;;;;;;11.20;6.22;;;;;;;0.12;72.32;99563.38;5065948;28;20024;-74
2021/04/16 05:37:54;;;;;;;13.63;7.28;;;;;;;0.37;71.17;99580.97;5059151;28;20025;-70
2021/04/16 05:40:20;;;;;;;15.48;6.70;;;;;;;0.59;71.31;99580.13;5069066;28;20039;-69
2021/04/16 05:42:45;;;;;;;12.90;6.20;;;;;;;0.80;69.93;99571.41;5052932;28;20036;-70
2021/04/16 05:45:11;;;;;;;14.15;7.05;;;;;;;0.96;70.60;99582.53;5071481;28;20451;-69
2021/04/16 05:47:36;;;;;;;24.50;12.40;;;;;;;0.90;69.03;99571.53;5072616;28;20025;-70
2021/04/16 05:50:03;;;;;;;21.45;9.50;;;;;;;0.55;70.22;99565.38;5069877;28;20763;-72
2021/04/16 05:52:29;;;;;;;13.18;6.47;;;;;;;0.59;70.60;99571.31;5053352;28;20033;-69
2021/04/16 05:54:54;;;;;;;13.13;5.95;;;;;;;0.70;70.11;99579.28;5062678;28;20024;-68
2021/04/16 05:57:19;;;;;;;12.00;6.07;;;;;;;0.65;70.85;99582.31;5063201;28;20383;-67
2021/04/16 05:59:44;;;;;;;10.23;4.75;;;;;;;0.47;71.78;99583.75;5053533;28;20033;-68
2021/04/16 06:02:32;;;;;;;10.48;5.25;;;;;;;0.68;71.61;99586.53;5069409;28;20039;-68
2021/04/16 06:04:59;;;;;;;8.55;5.15;;;;;;;0.72;71.96;99565.84;5067701;28;20086;-68
2021/04/16 06:07:25;;;;;;;7.72;4.63;;;;;;;1.11;70.98;99588.44;5068200;28;20030;-68
2021/04/16 06:09:53;;;;;;;8.07;5.10;;;;;;;1.20;69.94;99594.84;5062852;28;20040;-69
2021/04/16 06:12:20;;;;;;;8.05;3.92;;;;;;;1.45;69.36;99591.03;5055370;28;20146;-67
2021/04/16 06:14:46;;;;;;;9.02;4.93;;;;;;;1.68;69.62;99599.81;5055727;28;20029;-70
2021/04/16 06:17:14;;;;;;;8.10;4.22;;;;;;;1.66;69.13;99593.75;5056932;28;20811;-68
2021/04/16 06:19:40;;;;;;;8.65;4.88;;;;;;;1.56;68.59;99592.81;5057459;28;20037;-69
2021/04/16 06:22:05;;;;;;;6.03;3.80;;;;;;;1.46;69.53;99590.06;5057842;28;20033;-70
2021/04/16 06:24:31;;;;;;;7.18;4.03;;;;;;;1.33;69.21;99576.88;5058525;28;20068;-70
2021/04/16 06:26:56;;;;;;;6.72;3.70;;;;;;;1.38;69.77;99588.03;5057281;28;20354;-70
2021/04/16 06:29:22;;;;;;;9.20;4.45;;;;;;;1.23;70.52;99591.94;5055163;28;20083;-68
2021/04/16 06:31:47;;;;;;;7.57;4.32;;;;;;;1.38;70.58;99585.34;5056129;28;20036;-69
2021/04/16 06:34:12;;;;;;;6.97;4.30;;;;;;;1.58;70.38;99590.88;5055949;28;20024;-69
2021/04/16 06:36:37;;;;;;;9.00;4.63;;;;;;;1.68;70.53;99594.50;5061450;28;20028;-69
2021/04/16 06:39:03;;;;;;;9.30;4.50;;;;;;;1.92;70.10;99591.59;5062899;28;20494;-68
2021/04/16 06:41:31;;;;;;;8.95;4.82;;;;;;;2.36;68.34;99587.81;5059132;28;20025;-68
2021/04/16 06:44:00;;;;;;;9.85;4.35;;;;;;;2.39;68.58;99582.19;5056521;28;20048;-69
2021/04/16 06:46:35;;;;;;;6.97;4.22;;;;;;;3.07;67.35;99577.16;5058394;28;20048;-68
2021/04/16 06:49:03;;;;;;;8.30;4.05;;;;;;;3.93;65.55;99568.53;5056372;28;20032;-69
2021/04/16 06:51:32;;;;;;;7.72;3.88;;;;;;;6.30;58.37;99563.28;5060857;28;20536;-69
2021/04/16 06:54:02;;;;;;;6.83;3.30;;;;;;;6.93;54.89;99569.38;5056875;28;20038;-69
2021/04/16 06:56:37;;;;;;;6.72;3.40;;;;;;;7.24;53.80;99570.50;5065211;28;20521;-76
2021/04/16 06:59:08;;;;;;;10.70;3.40;;;;;;;7.26;53.40;99554.19;5068469;28;20035;-78
2021/04/16 07:01:42;;;;;;;6.68;3.30;;;;;;;6.70;56.37;99564.53;5066910;28;20024;-75
2021/04/16 07:04:24;;;;;;;6.93;3.72;;;;;;;6.56;56.37;99555.22;5058620;28;20055;-73
2021/04/16 07:06:54;;;;;;;11.57;3.63;;;;;;;6.12;57.73;99565.16;5068471;28;20594;-74
2021/04/16 07:09:31;;;;;;;6.60;3.30;;;;;;;7.07;55.48;99563.34;5060098;28;20032;-70
2021/04/16 07:12:20;;;;;;;4.47;3.35;;;;;;;9.68;50.24;99557.84;5053619;28;20036;-68
2021/04/16 07:14:52;;;;;;;4.85;3.13;;;;;;;8.79;52.25;99555.41;5054193;28;20647;-69
2021/04/16 07:17:21;;;;;;;5.80;3.53;;;;;;;10.58;49.05;99549.81;5056614;28;20032;-69
2021/04/16 07:19:47;;;;;;;4.53;3.35;;;;;;;11.94;45.68;99548.41;5060795;28;20035;-69
2021/04/16 07:22:31;;;;;;;4.80;3.47;;;;;;;10.50;48.33;99555.31;5069478;28;20111;-68
2021/04/16 07:24:56;;;;;;;5.50;3.22;;;;;;;9.73;50.03;99550.88;5059170;28;20099;-68
2021/04/16 07:27:25;;;;;;;5.22;3.35;;;;;;;9.33;51.05;99554.69;5054478;28;20112;-67
2021/04/16 07:29:56;;;;;;;6.63;3.20;;;;;;;9.66;50.24;99561.53;5056860;28;20089;-68
2021/04/16 07:32:32;;;;;;;11.52;3.70;;;;;;;8.79;52.62;99560.78;5057101;28;20087;-67
2021/04/16 07:35:16;;;;;;;5.57;3.03;;;;;;;8.98;51.75;99568.47;5063180;28;20106;-68
2021/04/16 07:37:44;;;;;;;4.32;3.08;;;;;;;8.04;53.91;99566.41;5071214;28;20647;-70
2021/04/16 07:40:24;;;;;;;4.78;2.97;;;;;;;6.50;58.71;99568.47;5074942;28;20052;-70
2021/04/16 07:42:50;;;;;;;;;;;;;;;6.24;59.94;99571.13;5066546;28;20051;-68
2021/04/16 07:45:36;;;;;;;4.65;2.72;;;;;;;5.97;60.32;99553.28;5075783;28;19916;-70
2021/04/16 07:48:19;;;;;;;5.03;2.95;;;;;;;6.60;59.49;99569.19;5070086;28;20032;-68
2021/04/16 07:50:48;;;;;;;5.88;3.70;;;;;;;5.86;61.30;99565.91;5067821;28;20549;-70
2021/04/16 07:53:32;;;;;;;6.18;3.60;;;;;;;5.76;62.04;99570.53;5073618;28;20029;-72
2021/04/16 07:56:15;;;;;;;4.88;3.42;;;;;;;5.97;61.85;99578.28;5076384;28;20459;-70
2021/04/16 07:58:43;;;;;;;6.20;3.45;;;;;;;5.68;62.25;99579.34;5075897;28;20067;-69
2021/04/16 08:01:24;;;;;;;6.70;3.40;;;;;;;5.60;62.23;99570.38;5072088;28;20025;-71
2021/04/16 08:03:53;;;;;;;7.18;3.72;;;;;;;5.49;62.80;99558.84;5069876;28;20032;-71
2021/04/16 08:06:31;;;;;;;;;;;;;;;5.41;63.42;99574.03;5073010;28;20104;-72
2021/04/16 08:08:57;;;;;;;9.93;4.20;;;;;;;5.39;63.50;99576.88;5069382;28;19913;-71
2021/04/16 08:11:26;;;;;;;6.53;4.30;;;;;;;5.38;64.06;99561.78;5084900;28;20051;-71
2021/04/16 08:13:54;;;;;;;5.53;3.55;;;;;;;5.37;63.70;99580.69;5069489;28;20028;-72
2021/04/16 08:16:37;;;;;;;7.85;3.85;;;;;;;5.67;63.49;99583.03;5069097;28;20035;-71
2021/04/16 08:19:19;;;;;;;5.18;3.58;;;;;;;5.88;62.87;99584.56;5080357;28;20420;-71
2021/04/16 08:21:47;;;;;;;7.90;3.90;;;;;;;6.16;62.09;99569.22;5066373;28;20041;-73
2021/04/16 08:24:23;;;;;;;7.47;3.92;;;;;;;8.42;57.30;99578.41;5075059;28;20020;-71
2021/04/16 08:27:01;;;;;;;5.28;3.25;;;;;;;10.20;51.38;99571.47;5070330;28;20060;-71
2021/04/16 08:29:33;;;;;;;4.55;3.15;;;;;;;8.63;53.95;99560.84;5072318;28;20032;-69
2021/04/16 08:32:04;;;;;;;5.88;3.00;;;;;;;8.11;55.27;99570.13;5070640;28;20044;-69
2021/04/16 08:34:38;;;;;;;4.72;3.28;;;;;;;7.61;56.30;99571.09;5064523;28;20028;-70
2021/04/16 08:37:04;;;;;;;5.60;3.15;;;;;;;7.58;57.42;99579.50;5075971;28;20107;-69
2021/04/16 08:39:42;;;;;;;5.63;3.38;;;;;;;7.61;56.41;99579.19;5070922;28;20027;-69
2021/04/16 08:42:14;;;;;;;5.75;3.25;;;;;;;7.99;56.35;99575.03;5073256;28;20024;-70
2021/04/16 08:44:53;;;;;;;6.22;3.42;;;;;;;8.14;54.84;99572.47;5067785;28;20048;-70
2021/04/16 08:47:27;;;;;;;5.65;3.28;;;;;;;8.03;56.07;99557.50;5065229;28;20036;-68
2021/04/16 08:49:55;;;;;;;3.97;2.83;;;;;;;7.78;55.73;99569.25;5062171;28;20162;-69
2021/04/16 08:52:27;;;;;;;4.32;3.17;;;;;;;7.43;56.43;99573.91;5076200;28;20038;-71
2021/04/16 08:54:53;;;;;;;5.65;3.60;;;;;;;7.44;58.27;99572.91;5069364;28;20386;-69
2021/04/16 08:57:28;;;;;;;7.05;4.03;;;;;;;7.60;56.13;99566.72;5072476;28;20082;-69
2021/04/16 09:00:32;;;;;;;5.93;3.45;;;;;;;7.10;58.02;99564.88;5068825;28;20074;-70
2021/04/16 09:02:59;;;;;;;4.43;3.28;;;;;;;6.69;58.39;99562.03;5064350;28;20398;-70
2021/04/16 09:05:28;;;;;;;9.57;3.80;;;;;;;6.66;59.32;99581.16;5068350;28;20027;-68
2021/04/16 09:08:16;;;;;;;6.82;4.05;;;;;;;8.33;56.09;99565.91;5066470;28;20103;-73
2021/04/16 09:10:44;;;;;;;4.68;3.25;;;;;;;10.65;49.61;99564.31;5060092;28;20043;-71
2021/04/16 09:13:32;;;;;;;4.35;3.03;;;;;;;13.78;43.08;99554.38;5070476;28;20422;-69
2021/04/16 09:16:16;;;;;;;6.35;3.17;;;;;;;13.54;43.30;99541.31;5068283;28;20024;-70
2021/04/16 09:18:50;;;;;;;3.97;3.08;;;;;;;11.71;46.77;99550.44;5071426;28;20044;-69
2021/04/16 09:21:24;;;;;;;8.18;3.25;;;;;;;10.87;48.83;99542.75;5061261;28;20036;-70
2021/04/16 09:23:53;;;;;;;8.90;3.42;;;;;;;9.53;51.00;99564.00;5052533;28;20021;-69
2021/04/16 09:26:43;;;;;;;5.28;3.63;;;;;;;9.14;52.62;99561.31;5058549;28;20116;-69
2021/04/16 09:29:39;;;;;;;4.65;3.20;;;;;;;8.00;55.28;99560.53;5065217;28;20044;-70
2021/04/16 09:32:26;;;;;;;6.13;3.58;;;;;;;7.74;56.22;99559.84;5066803;28;20048;-71
2021/04/16 09:34:52;;;;;;;8.23;3.70;;;;;;;7.49;56.48;99558.94;5070265;28;20052;-71
2021/04/16 09:37:25;;;;;;;6.45;4.35;;;;;;;7.64;56.12;99544.66;5052037;28;20551;-73
2021/04/16 09:40:14;;;;;;;5.75;3.53;;;;;;;7.42;57.49;99569.56;5052153;28;20033;-71
2021/04/16 09:42:45;;;;;;;5.00;3.50;;;;;;;7.40;58.01;99561.63;5071270;28;20038;-71
2021/04/16 09:45:33;;;;;;;7.38;3.75;;;;;;;6.98;58.13;99567.88;5064507;28;20390;-70
2021/04/16 09:48:04;;;;;;;5.68;3.33;;;;;;;5.96;61.31;99562.34;5061251;28;20032;-72
2021/04/16 09:50:47;;;;;;;6.13;3.50;;;;;;;6.12;61.40;99573.22;5069248;28;20107;-70
2021/04/16 09:53:23;;;;;;;4.60;3.13;;;;;;;5.98;62.84;99568.41;5064744;28;20501;-71
2021/04/16 09:58:48;;;;;;;5.78;3.75;;;;;;;5.87;63.50;99575.69;5062452;28;20063;-70
2021/04/16 10:01:19;;;;;;;7.93;3.67;;;;;;;6.01;62.19;99560.03;5056111;28;20029;-69
2021/04/16 10:03:49;;;;;;;5.57;4.13;;;;;;;6.10;62.93;99561.78;5063472;28;20390;-69
2021/04/16 10:06:16;;;;;;;6.40;4.07;;;;;;;6.07;63.33;99568.31;5050748;28;20021;-69
2021/04/16 10:08:44;;;;;;;5.85;3.78;;;;;;;5.88;62.58;99566.63;5058905;28;20025;-72
2021/04/16 10:11:11;;;;;;;5.38;3.47;;;;;;;5.91;61.71;99566.28;5060718;28;20104;-71
2021/04/16 10:13:39;;;;;;;6.93;4.15;;;;;;;5.82;63.20;99561.03;5069733;28;20021;-71
2021/04/16 10:16:19;;;;;;;5.07;3.92;;;;;;;5.83;62.97;99558.16;5066157;28;20119;-72
2021/04/16 10:18:44;;;;;;;;;;;;;;;5.61;63.23;99569.41;5054647;28;20044;-71
2021/04/16 10:21:20;;;;;;;4.88;3.42;;;;;;;6.09;62.19;99560.09;5054217;28;19917;-71
2021/04/16 10:24:17;;;;;;;5.65;3.67;;;;;;;6.20;61.38;99567.91;5054488;28;20044;-71
2021/04/16 12:38:14;;;;;;;1.65;1.10;;;;;;;8.06;48.93;99510.50;5058991;28;20082;-69
2021/04/16 12:40:39;;;;;;;2.15;1.10;;;;;;;8.24;49.55;99513.00;5074262;28;20028;-68
2021/04/16 12:43:06;;;;;;;1.35;1.20;;;;;;;8.19;49.88;99521.59;5078895;28;20068;-67
2021/04/16 12:45:32;;;;;;;1.58;1.00;;;;;;;8.33;49.19;99512.84;5069813;28;20020;-72
2021/04/16 12:47:58;;;;;;;1.65;1.20;;;;;;;8.39;48.69;99515.88;5073742;28;20056;-71
2021/04/16 12:50:26;;;;;;;1.60;1.17;;;;;;;8.54;48.95;99515.00;5081108;28;20025;-71
2021/04/16 12:52:52;;;;;;;1.45;0.90;;;;;;;8.90;48.97;99511.00;5082086;28;20047;-70
2021/04/16 12:55:18;;;;;;;1.88;1.23;;;;;;;9.33;48.13;99501.50;5079621;28;20040;-71
2021/04/16 12:57:47;;;;;;;2.97;1.50;;;;;;;9.37;47.96;99513.63;5079050;28;20070;-69
2021/04/16 13:00:16;;;;;;;4.28;1.20;;;;;;;9.55;47.91;99507.94;5082534;28;20020;-67
2021/04/16 13:02:42;;;;;;;1.83;1.15;;;;;;;9.34;47.42;99496.94;5062693;28;20273;-70
2021/04/16 13:05:11;;;;;;;1.10;1.00;;;;;;;9.00;47.77;99495.44;5069761;28;20124;-68
2021/04/16 13:07:36;;;;;;;1.98;1.13;;;;;;;9.14;48.09;99504.63;5058810;28;20033;-70
2021/04/16 13:10:10;;;;;;;1.73;1.20;;;;;;;8.82;48.87;99505.63;5063731;28;20544;-71
2021/04/16 13:12:35;;;;;;;1.05;0.90;;;;;;;8.77;47.80;99500.75;5072992;28;20055;-71
2021/04/16 13:15:01;;;;;;;1.02;0.90;;;;;;;8.90;47.60;99506.44;5072667;28;20068;-71
2021/04/16 13:17:27;;;;;;;1.75;1.30;;;;;;;8.87;47.82;99496.00;5070738;28;20047;-71
2021/04/16 13:19:56;;;;;;;1.08;0.98;;;;;;;8.70;48.24;99492.53;5071392;28;20039;-70
2021/04/16 13:22:21;;;;;;;1.27;1.00;;;;;;;9.02;48.49;99498.81;5071421;28;20551;-70
2021/04/16 13:24:49;;;;;;;2.05;1.38;;;;;;;9.17;48.06;99498.91;5071627;28;20025;-70
2021/04/16 13:27:24;;;;;;;1.67;1.00;;;;;;;9.07;48.53;99484.78;5073942;28;20107;-73
2021/04/16 13:29:49;;;;;;;2.47;1.15;;;;;;;8.97;48.81;99498.50;5070883;28;20086;-68
2021/04/16 13:32:18;;;;;;;2.15;1.17;;;;;;;8.55;49.51;99486.19;5071117;28;20028;-68
2021/04/16 13:34:44;;;;;;;1.70;1.30;;;;;;;8.28;49.51;99500.88;5068388;28;20032;-68
2021/04/16 13:37:18;;;;;;;1.67;1.15;;;;;;;8.05;50.23;99496.19;5070592;28;20024;-68
2021/04/16 13:39:44;;;;;;;1.98;1.23;;;;;;;8.01;50.58;99489.44;5072202;28;20078;-68
2021/04/16 13:42:10;;;;;;;2.20;1.50;;;;;;;8.01;50.83;99489.44;5071316;28;20032;-68
2021/04/16 13:44:35;;;;;;;2.67;1.50;;;;;;;7.69;51.35;99490.31;5064250;28;20021;-68
2021/04/16 13:47:05;;;;;;;2.15;1.17;;;;;;;7.88;50.71;99472.97;5050649;28;20506;-68
2021/04/16 13:49:36;;;;;;;2.47;1.70;;;;;;;7.61;52.64;99479.53;5054581;28;20105;-68
2021/04/16 13:52:03;;;;;;;1.65;1.23;;;;;;;7.77;51.58;99470.63;5071057;28;20037;-68
2021/04/16 13:54:29;;;;;;;1.98;1.42;;;;;;;7.69;52.45;99479.53;5061972;28;20028;-69
2021/04/16 13:56:54;;;;;;;1.83;1.30;;;;;;;7.73;51.57;99470.13;5066894;28;20029;-69
2021/04/16 13:59:20;;;;;;;6.97;1.55;;;;;;;7.71;52.12;99463.22;5071658;28;20021;-68
2021/04/16 14:01:45;;;;;;;1.80;1.38;;;;;;;7.72;51.92;99470.28;5065867;28;20028;-68